createdAt,value
2017-12-05T00:02:01.704Z,6.00
2017-12-05T00:04:29.842Z,5.90
2017-12-05T00:06:57.279Z,5.90
2017-12-05T00:09:24.779Z,5.90
2017-12-05T00:11:52.234Z,5.80
2017-12-05T00:14:19.684Z,5.70
2017-12-05T00:16:47.148Z,5.70
2017-12-05T00:19:14.600Z,5.70
2017-12-05T00:21:42.081Z,5.60
2017-12-05T00:24:09.537Z,5.60
2017-12-05T00:26:37.122Z,5.60
2017-12-05T00:29:04.548Z,5.60
2017-12-05T00:31:32.020Z,5.50
2017-12-05T00:33:59.603Z,5.50
2017-12-05T00:36:27.061Z,5.60
2017-12-05T00:38:54.543Z,5.70
2017-12-05T00:41:22.080Z,5.70
2017-12-05T00:43:49.507Z,5.60
2017-12-05T00:46:16.964Z,5.60
2017-12-05T00:48:44.807Z,5.60
2017-12-05T00:51:12.251Z,5.60
2017-12-05T00:53:39.694Z,5.70
2017-12-05T00:56:07.150Z,5.70
2017-12-05T00:58:34.622Z,5.80
2017-12-05T01:01:02.087Z,5.80
2017-12-05T01:03:29.553Z,5.80
2017-12-05T01:05:57.021Z,5.80
2017-12-05T01:08:24.448Z,5.90
2017-12-05T01:10:51.912Z,5.90
2017-12-05T01:13:19.376Z,6.00
2017-12-05T01:15:46.834Z,6.00
2017-12-05T01:18:14.275Z,6.00
2017-12-05T01:20:41.758Z,5.90
2017-12-05T01:23:09.195Z,5.90
2017-12-05T01:25:37.101Z,6.00
2017-12-05T01:28:04.569Z,6.00
2017-12-05T01:30:31.995Z,6.10
2017-12-05T01:32:59.433Z,6.10
2017-12-05T01:35:27.280Z,6.10
2017-12-05T01:37:54.725Z,6.10
2017-12-05T01:40:22.200Z,6.20
2017-12-05T01:42:49.658Z,6.10
2017-12-05T01:45:17.108Z,6.20
2017-12-05T01:47:44.572Z,6.20
2017-12-05T01:50:12.024Z,6.20
2017-12-05T01:52:39.471Z,6.20
2017-12-05T01:55:07.007Z,6.10
2017-12-05T01:57:34.832Z,6.10
2017-12-05T02:00:02.299Z,6.10
2017-12-05T02:02:29.759Z,6.10
2017-12-05T02:04:58.397Z,6.10
2017-12-05T02:07:26.265Z,6.10
2017-12-05T02:09:54.118Z,6.10
2017-12-05T02:12:21.598Z,6.10
2017-12-05T02:14:49.442Z,6.00
2017-12-05T02:17:16.901Z,6.00
2017-12-05T02:19:44.357Z,5.90
2017-12-05T02:22:11.814Z,5.90
2017-12-05T02:24:39.401Z,5.80
2017-12-05T02:27:06.818Z,5.80
2017-12-05T02:29:34.316Z,5.80
2017-12-05T02:32:01.759Z,5.70
2017-12-05T02:34:29.188Z,5.70
2017-12-05T02:36:56.642Z,5.70
2017-12-05T02:39:24.076Z,5.70
2017-12-05T02:41:51.595Z,5.60
2017-12-05T02:44:19.066Z,5.60
2017-12-05T02:46:46.502Z,5.60
2017-12-05T02:49:13.929Z,5.60
2017-12-05T02:51:41.775Z,5.60
2017-12-05T02:54:09.300Z,5.60
2017-12-05T02:56:36.897Z,5.60
2017-12-05T02:59:04.325Z,5.60
2017-12-05T03:01:31.760Z,5.60
2017-12-05T03:03:59.229Z,5.60
2017-12-05T03:06:26.716Z,5.70
2017-12-05T03:08:54.180Z,5.70
2017-12-05T03:11:21.799Z,5.70
2017-12-05T03:13:49.259Z,5.70
2017-12-05T03:16:16.833Z,5.80
2017-12-05T03:18:44.211Z,5.80
2017-12-05T03:21:11.724Z,5.80
2017-12-05T03:23:39.294Z,5.70
2017-12-05T03:26:06.741Z,5.80
2017-12-05T03:28:34.228Z,5.90
2017-12-05T03:31:01.692Z,5.90
2017-12-05T03:33:29.154Z,5.90
2017-12-05T03:35:57.120Z,6.00
2017-12-05T03:38:24.654Z,6.00
2017-12-05T03:40:52.127Z,5.90
2017-12-05T03:43:19.586Z,5.90
2017-12-05T03:45:47.034Z,5.90
2017-12-05T03:48:14.506Z,5.90
2017-12-05T03:50:41.944Z,5.90
2017-12-05T03:53:09.429Z,5.90
2017-12-05T03:55:36.850Z,5.90
2017-12-05T03:58:04.367Z,5.80
2017-12-05T04:00:31.905Z,5.80
2017-12-05T04:02:59.333Z,5.80
2017-12-05T04:05:26.814Z,5.80
2017-12-05T04:07:55.580Z,5.80
2017-12-05T04:10:23.077Z,5.80
2017-12-05T04:12:51.298Z,5.80
2017-12-05T04:15:18.765Z,5.80
2017-12-05T04:17:46.330Z,5.80
2017-12-05T04:20:13.767Z,5.80
2017-12-05T04:22:41.227Z,5.90
2017-12-05T04:25:08.680Z,5.90
2017-12-05T04:27:36.131Z,5.90
2017-12-05T04:30:03.574Z,5.90
2017-12-05T04:32:31.046Z,6.00
2017-12-05T04:34:58.530Z,6.00
2017-12-05T04:37:26.056Z,6.00
2017-12-05T04:39:53.863Z,6.10
2017-12-05T04:42:21.296Z,6.10
2017-12-05T04:44:48.771Z,6.10
2017-12-05T04:47:16.228Z,6.10
2017-12-05T04:49:43.678Z,6.10
2017-12-05T04:52:11.176Z,6.20
2017-12-05T04:54:38.648Z,6.20
2017-12-05T04:57:06.269Z,6.20
2017-12-05T04:59:33.700Z,6.30
2017-12-05T05:02:01.559Z,6.30
2017-12-05T05:04:28.987Z,6.30
2017-12-05T05:06:56.474Z,6.30
2017-12-05T05:09:23.921Z,6.20
2017-12-05T05:11:51.387Z,6.20
2017-12-05T05:14:18.847Z,6.10
2017-12-05T05:16:46.307Z,6.10
2017-12-05T05:19:13.743Z,6.10
2017-12-05T05:21:41.217Z,6.10
2017-12-05T05:24:08.670Z,6.10
2017-12-05T05:26:36.980Z,6.10
2017-12-05T05:29:04.426Z,6.10
2017-12-05T05:31:31.858Z,6.10
2017-12-05T05:33:59.315Z,6.10
2017-12-05T05:36:26.772Z,6.00
2017-12-05T05:38:54.263Z,6.00
2017-12-05T05:41:21.713Z,5.90
2017-12-05T05:43:49.148Z,5.90
2017-12-05T05:46:16.623Z,5.90
2017-12-05T05:48:44.059Z,5.80
2017-12-05T05:51:11.896Z,5.80
2017-12-05T05:53:39.488Z,5.80
2017-12-05T05:56:06.928Z,5.70
2017-12-05T05:58:34.374Z,5.70
2017-12-05T06:01:01.830Z,5.60
2017-12-05T06:03:29.288Z,5.50
2017-12-05T06:05:56.760Z,5.50
2017-12-05T06:08:25.071Z,5.50
2017-12-05T06:10:52.927Z,5.50
2017-12-05T06:13:20.375Z,5.50
2017-12-05T06:15:47.888Z,5.50
2017-12-05T06:18:15.360Z,5.50
2017-12-05T06:20:43.182Z,5.50
2017-12-05T06:23:10.786Z,5.50
2017-12-05T06:25:38.647Z,5.50
2017-12-05T06:28:06.593Z,5.40
2017-12-05T06:30:34.026Z,5.40
2017-12-05T06:33:01.489Z,5.40
2017-12-05T06:35:28.915Z,5.40
2017-12-05T06:37:56.360Z,5.40
2017-12-05T06:40:24.243Z,5.30
2017-12-05T06:42:52.074Z,5.30
2017-12-05T06:45:19.525Z,5.30
2017-12-05T06:47:46.978Z,5.30
2017-12-05T06:50:14.443Z,5.30
2017-12-05T06:52:41.867Z,5.30
2017-12-05T06:55:09.330Z,5.40
2017-12-05T06:57:37.238Z,5.40
2017-12-05T07:00:04.719Z,5.40
2017-12-05T07:02:32.256Z,5.40
2017-12-05T07:04:59.756Z,5.30
2017-12-05T07:07:27.582Z,5.30
2017-12-05T07:09:55.078Z,5.30
2017-12-05T07:12:22.528Z,5.20
2017-12-05T07:14:50.198Z,5.20
2017-12-05T07:17:17.659Z,5.20
2017-12-05T07:19:45.092Z,5.20
2017-12-05T07:22:12.578Z,5.20
2017-12-05T07:24:40.022Z,5.20
2017-12-05T07:27:07.467Z,5.20
2017-12-05T07:29:34.946Z,5.20
2017-12-05T07:32:02.409Z,5.30
2017-12-05T07:34:29.864Z,5.30
2017-12-05T07:36:57.322Z,5.40
2017-12-05T07:39:24.754Z,5.50
2017-12-05T07:41:52.665Z,5.60
2017-12-05T07:44:20.132Z,5.60
2017-12-05T07:46:47.561Z,5.70
2017-12-05T07:49:15.051Z,5.70
2017-12-05T07:51:42.504Z,5.80
2017-12-05T07:54:10.214Z,5.80
2017-12-05T07:56:37.652Z,5.90
2017-12-05T07:59:05.095Z,5.90
2017-12-05T08:01:32.582Z,5.90
2017-12-05T08:04:00.031Z,6.00
2017-12-05T08:06:27.460Z,6.00
2017-12-05T08:08:54.930Z,6.10
2017-12-05T08:11:22.405Z,6.10
2017-12-05T08:13:49.909Z,6.20
2017-12-05T08:16:17.403Z,6.30
2017-12-05T08:18:45.211Z,6.40
2017-12-05T08:21:12.657Z,6.40
2017-12-05T08:23:40.138Z,6.40
2017-12-05T08:26:07.559Z,6.40
2017-12-05T08:28:34.983Z,6.40
2017-12-05T08:31:02.464Z,6.30
2017-12-05T08:33:29.901Z,6.30
2017-12-05T08:35:57.370Z,6.30
2017-12-05T08:38:24.940Z,6.30
2017-12-05T08:40:52.376Z,6.40
2017-12-05T08:43:19.815Z,6.50
2017-12-05T08:45:47.285Z,6.40
2017-12-05T08:48:14.736Z,6.40
2017-12-05T08:50:42.189Z,6.50
2017-12-05T08:53:09.657Z,6.50
2017-12-05T08:55:37.097Z,6.60
2017-12-05T08:58:04.931Z,6.60
2017-12-05T09:00:32.479Z,6.60
2017-12-05T09:02:59.916Z,6.60
2017-12-05T09:05:27.349Z,6.70
2017-12-05T09:07:55.209Z,6.80
2017-12-05T09:10:22.652Z,6.80
2017-12-05T09:12:50.070Z,6.90
2017-12-05T09:15:17.560Z,7.00
2017-12-05T09:17:45.004Z,7.00
2017-12-05T09:20:12.463Z,7.00
2017-12-05T09:22:39.931Z,6.90
2017-12-05T09:25:07.379Z,7.00
2017-12-05T09:27:34.839Z,6.90
2017-12-05T09:30:02.393Z,6.90
2017-12-05T09:32:29.829Z,6.90
2017-12-05T09:34:57.742Z,7.20
2017-12-05T09:37:25.258Z,7.20
2017-12-05T09:39:52.760Z,7.30
2017-12-05T09:42:20.247Z,7.50
2017-12-05T09:44:47.679Z,7.70
2017-12-05T09:47:15.109Z,7.90
2017-12-05T09:49:42.994Z,8.00
2017-12-05T09:52:10.827Z,8.00
2017-12-05T09:54:38.241Z,8.00
2017-12-05T09:57:05.715Z,7.90
2017-12-05T09:59:33.209Z,7.90
2017-12-05T10:02:00.660Z,7.80
2017-12-05T10:04:29.200Z,7.80
2017-12-05T10:06:57.096Z,7.80
2017-12-05T10:09:24.511Z,7.80
2017-12-05T10:11:51.962Z,7.80
2017-12-05T10:14:19.432Z,7.80
2017-12-05T10:16:46.999Z,7.80
2017-12-05T10:19:14.490Z,7.80
2017-12-05T10:21:42.292Z,7.50
2017-12-05T10:24:09.767Z,7.50
2017-12-05T10:26:37.226Z,7.50
2017-12-05T10:29:04.783Z,7.40
2017-12-05T10:31:32.448Z,7.40
2017-12-05T10:33:59.887Z,7.50
2017-12-05T10:36:27.333Z,7.50
2017-12-05T10:38:54.824Z,7.50
2017-12-05T10:41:22.273Z,7.50
2017-12-05T10:43:49.715Z,7.50
2017-12-05T10:46:17.580Z,7.50
2017-12-05T10:48:44.991Z,7.50
2017-12-05T10:51:12.459Z,7.50
2017-12-05T10:53:40.112Z,7.60
2017-12-05T10:56:07.543Z,7.60
2017-12-05T10:58:34.990Z,7.70
2017-12-05T11:01:02.855Z,7.80
2017-12-05T11:03:30.274Z,7.80
2017-12-05T11:05:57.711Z,7.90
2017-12-05T11:08:25.177Z,7.90
2017-12-05T11:10:52.657Z,7.90
2017-12-05T11:13:20.104Z,7.90
2017-12-05T11:15:47.553Z,7.90
2017-12-05T11:18:15.070Z,7.90
2017-12-05T11:20:42.504Z,7.90
2017-12-05T11:23:09.941Z,7.90
2017-12-05T11:25:37.460Z,7.90
2017-12-05T11:28:04.940Z,7.80
2017-12-05T11:30:32.764Z,7.80
2017-12-05T11:33:01.579Z,7.80
2017-12-05T11:35:29.005Z,7.90
2017-12-05T11:37:56.496Z,7.80
2017-12-05T11:40:23.957Z,7.80
2017-12-05T11:42:51.399Z,7.80
2017-12-05T11:45:18.830Z,7.80
2017-12-05T11:47:46.313Z,7.80
2017-12-05T11:50:14.164Z,7.80
2017-12-05T11:52:41.594Z,7.90
2017-12-05T11:55:09.220Z,7.80
2017-12-05T11:57:36.674Z,7.80
2017-12-05T12:00:04.124Z,7.80
2017-12-05T12:02:31.601Z,7.90
2017-12-05T12:04:59.047Z,7.90
2017-12-05T12:07:26.480Z,7.90
2017-12-05T12:09:54.343Z,7.90
2017-12-05T12:12:22.268Z,7.90
2017-12-05T12:14:49.687Z,7.90
2017-12-05T12:17:17.151Z,7.90
2017-12-05T12:19:44.611Z,7.80
2017-12-05T12:22:12.547Z,7.80
2017-12-05T12:24:39.989Z,7.80
2017-12-05T12:27:08.006Z,7.80
2017-12-05T12:29:35.924Z,7.80
2017-12-05T12:32:03.487Z,7.80
2017-12-05T12:34:30.911Z,7.80
2017-12-05T12:36:58.946Z,7.80
2017-12-05T12:39:26.431Z,7.80
2017-12-05T12:41:53.903Z,7.80
2017-12-05T12:44:21.731Z,7.70
2017-12-05T12:46:49.204Z,7.70
2017-12-05T12:49:16.664Z,7.80
2017-12-05T12:51:44.104Z,7.80
2017-12-05T12:54:11.577Z,7.80
2017-12-05T12:56:39.089Z,7.80
2017-12-05T12:59:06.908Z,7.80
2017-12-05T13:01:34.519Z,7.80
2017-12-05T13:04:02.342Z,7.70
2017-12-05T13:06:29.800Z,7.70
2017-12-05T13:08:57.251Z,7.60
2017-12-05T13:11:24.737Z,7.60
2017-12-05T13:13:52.178Z,7.60
2017-12-05T13:16:19.625Z,7.60
2017-12-05T13:18:47.074Z,7.50
2017-12-05T13:21:14.533Z,7.50
2017-12-05T13:23:42.378Z,7.60
2017-12-05T13:26:09.840Z,7.60
2017-12-05T13:28:37.310Z,7.50
2017-12-05T13:31:05.144Z,7.60
2017-12-05T13:33:32.583Z,7.60
2017-12-05T13:36:00.076Z,7.60
2017-12-05T13:38:27.499Z,7.60
2017-12-05T13:40:54.940Z,7.60
2017-12-05T13:43:23.559Z,7.60
2017-12-05T13:45:50.999Z,7.60
2017-12-05T13:48:18.444Z,7.60
2017-12-05T13:50:46.380Z,7.70
2017-12-05T13:53:13.828Z,7.70
2017-12-05T13:55:41.328Z,7.70
2017-12-05T13:58:08.781Z,7.70
2017-12-05T14:00:36.259Z,7.50
2017-12-05T14:03:04.093Z,7.50
2017-12-05T14:05:31.554Z,7.60
2017-12-05T14:07:58.977Z,7.50
2017-12-05T14:10:26.449Z,7.40
2017-12-05T14:12:53.923Z,7.50
2017-12-05T14:15:21.395Z,7.50
2017-12-05T14:17:48.817Z,7.40
2017-12-05T14:20:16.252Z,7.40
2017-12-05T14:22:43.778Z,7.40
2017-12-05T14:25:11.380Z,7.40
2017-12-05T14:27:38.800Z,7.30
2017-12-05T14:30:06.248Z,7.30
2017-12-05T14:32:33.716Z,7.30
2017-12-05T14:35:01.424Z,7.30
2017-12-05T14:37:29.267Z,7.20
2017-12-05T14:39:56.759Z,7.20
2017-12-05T14:42:24.174Z,7.10
2017-12-05T14:44:51.621Z,7.20
2017-12-05T14:47:19.109Z,7.10
2017-12-05T14:49:46.575Z,7.10
2017-12-05T14:52:14.134Z,7.10
2017-12-05T14:54:41.600Z,7.10
2017-12-05T14:57:09.060Z,7.10
2017-12-05T14:59:36.531Z,7.10
2017-12-05T15:02:03.992Z,7.10
2017-12-05T15:04:31.424Z,7.10
2017-12-05T15:06:58.911Z,7.00
2017-12-05T15:09:26.357Z,7.10
2017-12-05T15:11:53.793Z,7.10
2017-12-05T15:14:21.674Z,7.10
2017-12-05T15:16:49.474Z,7.10
2017-12-05T15:19:16.963Z,7.10
2017-12-05T15:21:45.402Z,7.00
2017-12-05T15:24:13.688Z,7.00
2017-12-05T15:26:41.212Z,7.00
2017-12-05T15:29:09.055Z,7.00
2017-12-05T15:31:36.480Z,7.00
2017-12-05T15:34:03.926Z,7.00
2017-12-05T15:36:31.383Z,7.00
2017-12-05T15:38:58.857Z,7.00
2017-12-05T15:41:26.279Z,7.00
2017-12-05T15:43:54.119Z,6.90
2017-12-05T15:46:21.685Z,6.90
2017-12-05T15:48:49.130Z,6.90
2017-12-05T15:51:16.574Z,6.90
2017-12-05T15:53:45.793Z,6.90
2017-12-05T15:56:13.256Z,6.90
2017-12-05T15:58:40.716Z,6.90
2017-12-05T16:01:08.201Z,6.80
2017-12-05T16:03:35.635Z,6.90
2017-12-05T16:06:03.076Z,6.80
2017-12-05T16:08:30.664Z,6.90
2017-12-05T16:10:58.111Z,6.80
2017-12-05T16:13:25.536Z,6.80
2017-12-05T16:15:54.016Z,6.60
2017-12-05T16:18:21.439Z,6.60
2017-12-05T16:20:48.885Z,6.60
2017-12-05T16:23:16.354Z,6.60
2017-12-05T16:25:43.765Z,6.70
2017-12-05T16:28:11.727Z,6.60
2017-12-05T16:30:39.270Z,6.60
2017-12-05T16:33:06.692Z,6.60
2017-12-05T16:35:34.123Z,6.60
2017-12-05T16:38:02.038Z,6.60
2017-12-05T16:40:29.451Z,6.60
2017-12-05T16:42:57.660Z,6.60
2017-12-05T16:45:26.120Z,6.70
2017-12-05T16:47:53.562Z,6.70
2017-12-05T16:50:21.104Z,6.70
2017-12-05T16:52:48.610Z,6.70
2017-12-05T16:55:16.011Z,6.70
2017-12-05T16:57:43.438Z,6.70
2017-12-05T17:00:11.394Z,6.70
2017-12-05T17:02:38.829Z,6.70
2017-12-05T17:05:06.261Z,6.70
2017-12-05T17:07:33.738Z,6.70
2017-12-05T17:10:01.550Z,6.70
2017-12-05T17:12:28.977Z,6.60
2017-12-05T17:14:56.436Z,6.60
2017-12-05T17:17:24.126Z,6.60
2017-12-05T17:19:51.586Z,6.70
2017-12-05T17:22:19.487Z,6.60
2017-12-05T17:24:47.350Z,6.60
2017-12-05T17:27:14.773Z,6.60
2017-12-05T17:29:42.362Z,6.60
2017-12-05T17:32:09.913Z,6.60
2017-12-05T17:34:37.352Z,6.60
2017-12-05T17:37:04.787Z,6.60
2017-12-05T17:39:32.206Z,6.60
2017-12-05T17:42:00.204Z,6.60
2017-12-05T17:44:28.040Z,6.70
2017-12-05T17:46:55.673Z,6.70
2017-12-05T17:49:23.324Z,6.60
2017-12-05T17:51:50.742Z,6.70
2017-12-05T17:54:18.304Z,6.70
2017-12-05T17:56:46.016Z,6.70
2017-12-05T17:59:13.524Z,6.70
2017-12-05T18:01:41.179Z,6.70
2017-12-05T18:04:08.639Z,6.70
2017-12-05T18:06:36.172Z,6.70
2017-12-05T18:09:04.044Z,6.70
2017-12-05T18:11:31.563Z,6.70
2017-12-05T18:13:59.016Z,6.70
2017-12-05T18:16:26.503Z,6.70
2017-12-05T18:18:53.974Z,6.60
2017-12-05T18:21:21.916Z,6.70
2017-12-05T18:23:49.433Z,6.70
2017-12-05T18:26:16.912Z,6.60
2017-12-05T18:28:44.344Z,6.60
2017-12-05T18:31:12.201Z,6.60
2017-12-05T18:33:40.067Z,6.60
2017-12-05T18:36:07.987Z,6.60
2017-12-05T18:38:35.576Z,6.60
2017-12-05T18:41:03.050Z,6.50
2017-12-05T18:43:30.582Z,6.50
2017-12-05T18:45:58.610Z,6.50
2017-12-05T18:48:26.584Z,6.50
2017-12-05T18:50:54.451Z,6.50
2017-12-05T18:53:22.298Z,6.50
2017-12-05T18:55:49.778Z,6.50
2017-12-05T18:58:17.622Z,6.50
2017-12-05T19:00:45.108Z,6.50
2017-12-05T19:03:13.009Z,6.50
2017-12-05T19:05:40.938Z,6.50
2017-12-05T19:08:08.497Z,6.50
2017-12-05T19:10:35.962Z,6.50
2017-12-05T19:13:03.404Z,6.50
2017-12-05T19:15:30.855Z,6.50
2017-12-05T19:17:58.343Z,6.40
2017-12-05T19:20:25.778Z,6.50
2017-12-05T19:22:53.189Z,6.50
2017-12-05T19:25:20.656Z,6.50
2017-12-05T19:27:48.492Z,6.40
2017-12-05T19:30:15.964Z,6.40
2017-12-05T19:32:43.846Z,6.50
2017-12-05T19:35:11.310Z,6.50
2017-12-05T19:37:38.794Z,6.40
2017-12-05T19:40:06.671Z,6.40
2017-12-05T19:42:34.195Z,6.40
2017-12-05T19:45:01.841Z,6.40
2017-12-05T19:47:29.301Z,6.50
2017-12-05T19:49:56.754Z,6.50
2017-12-05T19:52:24.234Z,6.40
2017-12-05T19:54:51.684Z,6.40
2017-12-05T19:57:19.134Z,6.50
2017-12-05T19:59:46.591Z,6.40
2017-12-05T20:02:14.109Z,6.40
2017-12-05T20:04:41.562Z,6.40
2017-12-05T20:07:09.059Z,6.40
2017-12-05T20:09:36.972Z,6.40
2017-12-05T20:12:04.411Z,6.40
2017-12-05T20:14:31.978Z,6.40
2017-12-05T20:16:59.632Z,6.40
2017-12-05T20:19:27.121Z,6.40
2017-12-05T20:21:54.626Z,6.40
2017-12-05T20:24:22.508Z,6.40
2017-12-05T20:26:50.350Z,6.40
2017-12-05T20:29:17.831Z,6.40
2017-12-05T20:31:45.654Z,6.40
2017-12-05T20:34:13.108Z,6.40
2017-12-05T20:36:40.596Z,6.40
2017-12-05T20:39:08.054Z,6.30
2017-12-05T20:41:35.552Z,6.30
2017-12-05T20:44:03.661Z,6.40
2017-12-05T20:46:31.176Z,6.40
2017-12-05T20:48:58.626Z,6.40
2017-12-05T20:51:26.099Z,6.40
2017-12-05T20:53:53.548Z,6.40
2017-12-05T20:56:21.022Z,6.40
2017-12-05T20:58:48.538Z,6.40
2017-12-05T21:01:16.066Z,6.40
2017-12-05T21:03:43.912Z,6.40
2017-12-05T21:06:11.419Z,6.40
2017-12-05T21:08:38.996Z,6.50
2017-12-05T21:11:06.507Z,6.50
2017-12-05T21:13:33.993Z,6.50
2017-12-05T21:16:01.415Z,6.40
2017-12-05T21:18:28.873Z,6.40
2017-12-05T21:20:56.340Z,6.30
2017-12-05T21:23:23.820Z,6.30
2017-12-05T21:25:51.268Z,6.30
2017-12-05T21:28:18.685Z,6.30
2017-12-05T21:30:46.175Z,6.30
2017-12-05T21:33:13.619Z,6.30
2017-12-05T21:35:41.094Z,6.40
2017-12-05T21:38:08.537Z,6.30
2017-12-05T21:40:36.021Z,6.30
2017-12-05T21:43:03.494Z,6.30
2017-12-05T21:45:30.937Z,6.30
2017-12-05T21:47:59.255Z,6.20
2017-12-05T21:50:27.135Z,6.20
2017-12-05T21:52:54.577Z,6.20
2017-12-05T21:55:22.126Z,6.30
2017-12-05T21:57:49.785Z,6.30
2017-12-05T22:00:17.237Z,6.40
2017-12-05T22:02:44.672Z,6.30
2017-12-05T22:05:12.134Z,6.30
2017-12-05T22:07:39.575Z,6.30
2017-12-05T22:10:07.491Z,6.30
2017-12-05T22:12:34.969Z,6.30
2017-12-05T22:15:02.425Z,6.30
2017-12-05T22:17:29.907Z,6.30
2017-12-05T22:19:57.370Z,6.30
2017-12-05T22:22:24.917Z,6.30
2017-12-05T22:24:52.603Z,6.30
2017-12-05T22:27:20.050Z,6.30
2017-12-05T22:29:47.504Z,6.30
2017-12-05T22:32:14.980Z,6.40
2017-12-05T22:34:42.631Z,6.40
2017-12-05T22:37:10.079Z,6.40
2017-12-05T22:39:37.980Z,6.40
2017-12-05T22:42:05.420Z,6.40
2017-12-05T22:44:32.892Z,6.50
2017-12-05T22:47:00.378Z,6.50
2017-12-05T22:49:27.814Z,6.40
2017-12-05T22:51:55.272Z,6.40
2017-12-05T22:54:22.741Z,6.50
2017-12-05T22:56:50.203Z,6.40
2017-12-05T22:59:17.707Z,6.40
2017-12-05T23:01:45.579Z,6.40
2017-12-05T23:04:13.424Z,6.40
2017-12-05T23:06:41.388Z,6.40
2017-12-05T23:09:08.839Z,6.40
2017-12-05T23:11:36.277Z,6.40
2017-12-05T23:14:03.739Z,6.40
2017-12-05T23:16:31.204Z,6.40
2017-12-05T23:18:58.770Z,6.40
2017-12-05T23:21:26.248Z,6.40
2017-12-05T23:23:53.752Z,6.50
2017-12-05T23:26:21.596Z,6.50
2017-12-05T23:28:49.232Z,6.50
2017-12-05T23:31:16.707Z,6.40
2017-12-05T23:33:44.378Z,6.40
2017-12-05T23:36:11.960Z,6.50
2017-12-05T23:38:39.394Z,6.50
2017-12-05T23:41:06.859Z,6.50
2017-12-05T23:43:34.363Z,6.60
2017-12-05T23:46:01.847Z,6.50
2017-12-05T23:48:29.765Z,6.50
2017-12-05T23:50:57.292Z,6.50
2017-12-05T23:53:25.117Z,6.50
2017-12-05T23:55:52.545Z,6.50
2017-12-05T23:58:20.004Z,6.50
